This is the latest recevied weather packets stored in our database for station/object W1SGB. If no packets are shown the sender has not sent any weather packets the latest 10 day(s).
| Time | Temp. | Humidity | Pressure | Rain* | Wind** | Luminosity | Snow |
|---|---|---|---|---|---|---|---|
| 1777837220 | 11.11° C | 43% | 1006.7 hPa | 0 mm | - | 188 W/m² | - |
| 1777828820 | 10.56° C | 48% | 1006.5 hPa | 0 mm | - | 188 W/m² | - |
| 1777824018 | 8.89° C | 57% | 1006.9 hPa | 0 mm | - | 304 W/m² | - |
| 1777822818 | 8.33° C | 59% | 1007 hPa | 0 mm | - | 241 W/m² | - |
| 1777822218 | 8.89° C | 60% | 1007 hPa | 0 mm | - | 260 W/m² | - |
| 1777821619 | 8.33° C | 62% | 1007 hPa | 0 mm | - | 503 W/m² | - |
| 1777821039 | 8.33° C | 62% | 1007 hPa | 0 mm | - | 245 W/m² | - |
| 1777816819 | 7.78° C | 69% | 1006.8 hPa | 0 mm | - | 121 W/m² | - |
| 1777814440 | 7.22° C | 70% | 1006.9 hPa | 0 mm | - | 134 W/m² | - |
| 1777812621 | 6.67° C | 70% | 1007 hPa | 0 mm | - | 98 W/m² | - |
| 1777811420 | 6.67° C | 70% | 1007.2 hPa | 0 mm | - | 147 W/m² | - |
| 1777807819 | 5° C | 74% | 1007.6 hPa | 0 mm | - | 42 W/m² | - |
| 1777806019 | 3.33° C | 78% | 1007.6 hPa | 0 mm | - | 27 W/m² | - |
| 1777802421 | 3.89° C | 77% | 1007.5 hPa | 0 mm | - | 7 W/m² | - |
| 1777801220 | 4.44° C | 77% | 1007.5 hPa | 0 mm | - | 1 W/m² | - |
| 1777799421 | 4.44° C | 78% | 1007.6 hPa | 0 mm | - | 0 W/m² | - |
| 1777798821 | 4.44° C | 81% | 1007.6 hPa | 0 mm | - | 0 W/m² | - |
| 1777797022 | 4.44° C | 80% | 1007.9 hPa | 0 mm | - | 0 W/m² | - |
| 1777795822 | 4.44° C | 81% | 1007.9 hPa | 0 mm | - | 0 W/m² | - |
| 1777794022 | 5° C | 80% | 1008.5 hPa | 0 mm | - | 0 W/m² | - |
| 1777792223 | 4.44° C | 91% | 1008.6 hPa | 0 mm | - | 0 W/m² | - |
| 1777791623 | 4.44° C | 91% | 1008.6 hPa | 0 mm | - | 0 W/m² | - |
| 1777791024 | 4.44° C | 91% | 1008.6 hPa | 0 mm | - | 0 W/m² | - |
| 1777790423 | 4.44° C | 91% | 1008.8 hPa | 0 mm | - | 0 W/m² | - |
| 1777789244 | 5° C | 92% | 1009.1 hPa | 0 mm | - | 0 W/m² | - |
* Rain latest hour (hover to see other rain measurements)
** Current wind speed in m/s (hover to see current wind gust speed)